CFG8NV LKPR-EDDF
Flight info
| Callsign | CFG8NV |
|---|---|
| Flight time | 0h 44m |
| Altitude | 26000 |
| Route | BALTU DCT DONAD DCT RAPET T170 GAPLA T178 KERAX KERAX5A |
| Aircraft | A320/M-SDE3FGHIJ1LORVWXYZ/LB1 |
Departure
| Time | 2026-05-06 14:14 |
|---|---|
| Airport | Václav Havel Airport Prague (LKPR) |
Arrival
| Time | 2026-05-06 14:58 |
|---|---|
| Airport | Frankfurt Main Airport (EDDF) |
| Time | Latitude | Longitude | Altitude | Speed | Heading |
|---|---|---|---|---|---|
| 2026-05-06 14:00 | 50.10486 | 14.26482 | 1174 ft | 0 kts | 34° |
| 2026-05-06 14:06 | 50.10477 | 14.26472 | 1174 ft | 4 kts | 36° |
| 2026-05-06 14:07 | 50.10455 | 14.26450 | 1169 ft | 4 kts | 11° |
| 2026-05-06 14:07 | 50.10445 | 14.26448 | 1169 ft | 3 kts | 307° |
| 2026-05-06 14:07 | 50.10441 | 14.26455 | 1173 ft | 0 kts | 304° |
| 2026-05-06 14:09 | 50.10464 | 14.26404 | 1174 ft | 10 kts | 304° |
| 2026-05-06 14:09 | 50.10504 | 14.26313 | 1171 ft | 11 kts | 304° |
| 2026-05-06 14:09 | 50.10538 | 14.26196 | 1173 ft | 15 kts | 276° |
| 2026-05-06 14:10 | 50.10524 | 14.26030 | 1174 ft | 12 kts | 252° |
| 2026-05-06 14:10 | 50.10462 | 14.26051 | 1175 ft | 14 kts | 126° |
| 2026-05-06 14:10 | 50.10388 | 14.26206 | 1174 ft | 20 kts | 127° |
| 2026-05-06 14:10 | 50.10301 | 14.26389 | 1177 ft | 22 kts | 126° |
| 2026-05-06 14:11 | 50.10204 | 14.26588 | 1175 ft | 24 kts | 128° |
| 2026-05-06 14:11 | 50.10103 | 14.26797 | 1184 ft | 23 kts | 126° |
| 2026-05-06 14:11 | 50.10013 | 14.26984 | 1195 ft | 20 kts | 127° |
| 2026-05-06 14:11 | 50.09930 | 14.27158 | 1200 ft | 20 kts | 127° |
| 2026-05-06 14:12 | 50.09839 | 14.27329 | 1203 ft | 22 kts | 133° |
| 2026-05-06 14:12 | 50.09729 | 14.27503 | 1206 ft | 23 kts | 135° |
| 2026-05-06 14:12 | 50.09624 | 14.27637 | 1210 ft | 16 kts | 173° |
| 2026-05-06 14:12 | 50.09533 | 14.27558 | 1213 ft | 16 kts | 218° |
| 2026-05-06 14:13 | 50.09438 | 14.27444 | 1210 ft | 14 kts | 218° |
| 2026-05-06 14:13 | 50.09475 | 14.27279 | 1207 ft | 34 kts | 307° |
| 2026-05-06 14:13 | 50.09788 | 14.26631 | 1207 ft | 114 kts | 307° |
| 2026-05-06 14:13 | 50.10387 | 14.25410 | 1417 ft | 151 kts | 306° |
| 2026-05-06 14:14 | 50.11034 | 14.24125 | 2181 ft | 154 kts | 305° |
| 2026-05-06 14:14 | 50.11691 | 14.22761 | 2831 ft | 166 kts | 303° |
| 2026-05-06 14:14 | 50.12427 | 14.21210 | 3323 ft | 190 kts | 301° |
| 2026-05-06 14:14 | 50.13248 | 14.19475 | 3755 ft | 212 kts | 303° |
| 2026-05-06 14:15 | 50.14182 | 14.17511 | 4194 ft | 239 kts | 303° |
| 2026-05-06 14:15 | 50.15228 | 14.15320 | 4798 ft | 263 kts | 303° |
| 2026-05-06 14:15 | 50.16348 | 14.12989 | 5721 ft | 272 kts | 304° |
| 2026-05-06 14:15 | 50.17501 | 14.10595 | 6740 ft | 277 kts | 304° |
| 2026-05-06 14:16 | 50.18667 | 14.08173 | 7769 ft | 281 kts | 303° |
| 2026-05-06 14:16 | 50.19852 | 14.05711 | 8790 ft | 285 kts | 303° |
| 2026-05-06 14:16 | 50.21033 | 14.03196 | 9797 ft | 288 kts | 298° |
| 2026-05-06 14:16 | 50.21901 | 14.00315 | 10397 ft | 300 kts | 282° |
| 2026-05-06 14:17 | 50.22210 | 13.97085 | 11231 ft | 301 kts | 266° |
| 2026-05-06 14:17 | 50.21956 | 13.93854 | 12130 ft | 301 kts | 252° |
| 2026-05-06 14:17 | 50.21317 | 13.90742 | 13064 ft | 303 kts | 249° |
| 2026-05-06 14:17 | 50.20655 | 13.87603 | 13973 ft | 306 kts | 249° |
| 2026-05-06 14:18 | 50.19985 | 13.84425 | 14780 ft | 309 kts | 249° |
| 2026-05-06 14:18 | 50.19317 | 13.81257 | 15564 ft | 313 kts | 249° |
| 2026-05-06 14:18 | 50.18620 | 13.77963 | 16365 ft | 317 kts | 249° |
| 2026-05-06 14:18 | 50.17929 | 13.74706 | 17159 ft | 321 kts | 249° |
| 2026-05-06 14:19 | 50.17223 | 13.71379 | 17949 ft | 325 kts | 249° |
| 2026-05-06 14:19 | 50.16508 | 13.68008 | 18634 ft | 329 kts | 249° |
| 2026-05-06 14:19 | 50.15788 | 13.64611 | 19351 ft | 331 kts | 249° |
| 2026-05-06 14:19 | 50.15062 | 13.61183 | 20080 ft | 333 kts | 248° |
| 2026-05-06 14:20 | 50.14333 | 13.57745 | 20809 ft | 335 kts | 248° |
| 2026-05-06 14:20 | 50.13607 | 13.54332 | 21528 ft | 337 kts | 248° |
| 2026-05-06 14:20 | 50.12865 | 13.50854 | 22257 ft | 339 kts | 248° |
| 2026-05-06 14:20 | 50.12116 | 13.47355 | 22976 ft | 341 kts | 248° |
| 2026-05-06 14:21 | 50.11360 | 13.43836 | 23628 ft | 343 kts | 248° |
| 2026-05-06 14:21 | 50.10597 | 13.40299 | 24220 ft | 345 kts | 248° |
| 2026-05-06 14:21 | 50.09828 | 13.36736 | 24823 ft | 347 kts | 247° |
| 2026-05-06 14:21 | 50.09142 | 13.33089 | 25266 ft | 357 kts | 254° |
| 2026-05-06 14:22 | 50.08842 | 13.29193 | 25590 ft | 368 kts | 263° |
| 2026-05-06 14:22 | 50.08751 | 13.25188 | 25749 ft | 372 kts | 263° |
| 2026-05-06 14:22 | 50.08654 | 13.21216 | 25776 ft | 373 kts | 262° |
| 2026-05-06 14:22 | 50.08551 | 13.17183 | 25775 ft | 373 kts | 263° |
| 2026-05-06 14:23 | 50.08444 | 13.13122 | 25775 ft | 373 kts | 262° |
| 2026-05-06 14:23 | 50.08333 | 13.09088 | 25802 ft | 373 kts | 262° |
| 2026-05-06 14:23 | 50.08222 | 13.05059 | 25804 ft | 373 kts | 262° |
| 2026-05-06 14:23 | 50.08188 | 13.01012 | 25801 ft | 376 kts | 268° |
| 2026-05-06 14:24 | 50.08588 | 12.96945 | 25809 ft | 383 kts | 278° |
| 2026-05-06 14:24 | 50.09263 | 12.92972 | 25807 ft | 384 kts | 278° |
| 2026-05-06 14:24 | 50.09988 | 12.88949 | 25835 ft | 386 kts | 281° |
| 2026-05-06 14:24 | 50.10816 | 12.84965 | 25825 ft | 388 kts | 283° |
| 2026-05-06 14:25 | 50.11712 | 12.80992 | 25814 ft | 388 kts | 284° |
| 2026-05-06 14:25 | 50.12635 | 12.77026 | 25804 ft | 389 kts | 284° |
| 2026-05-06 14:25 | 50.13560 | 12.73056 | 25798 ft | 389 kts | 284° |
| 2026-05-06 14:25 | 50.14462 | 12.69126 | 25792 ft | 389 kts | 283° |
| 2026-05-06 14:26 | 50.15358 | 12.65130 | 25786 ft | 389 kts | 283° |
| 2026-05-06 14:26 | 50.16237 | 12.61139 | 25783 ft | 389 kts | 283° |
| 2026-05-06 14:26 | 50.17109 | 12.57143 | 25780 ft | 389 kts | 283° |
| 2026-05-06 14:26 | 50.17977 | 12.53143 | 25776 ft | 389 kts | 283° |
| 2026-05-06 14:27 | 50.18835 | 12.49180 | 25774 ft | 389 kts | 283° |
| 2026-05-06 14:27 | 50.19702 | 12.45176 | 25787 ft | 390 kts | 283° |
| 2026-05-06 14:27 | 50.20573 | 12.41163 | 25775 ft | 390 kts | 283° |
| 2026-05-06 14:27 | 50.21447 | 12.37143 | 25765 ft | 390 kts | 283° |
| 2026-05-06 14:28 | 50.22318 | 12.33126 | 25761 ft | 391 kts | 283° |
| 2026-05-06 14:28 | 50.23187 | 12.29107 | 25756 ft | 391 kts | 283° |
| 2026-05-06 14:28 | 50.24060 | 12.25062 | 25750 ft | 392 kts | 283° |
| 2026-05-06 14:28 | 50.24931 | 12.21021 | 25750 ft | 392 kts | 283° |
| 2026-05-06 14:29 | 50.25788 | 12.17032 | 25771 ft | 392 kts | 283° |
| 2026-05-06 14:29 | 50.26654 | 12.12992 | 25774 ft | 392 kts | 283° |
| 2026-05-06 14:29 | 50.27521 | 12.08946 | 25776 ft | 392 kts | 283° |
| 2026-05-06 14:29 | 50.28390 | 12.04896 | 25785 ft | 393 kts | 283° |
| 2026-05-06 14:30 | 50.29261 | 12.00823 | 25798 ft | 393 kts | 284° |
| 2026-05-06 14:30 | 50.30124 | 11.96768 | 25792 ft | 394 kts | 284° |
| 2026-05-06 14:30 | 50.30987 | 11.92701 | 25788 ft | 394 kts | 284° |
| 2026-05-06 14:30 | 50.31851 | 11.88622 | 25786 ft | 395 kts | 284° |
| 2026-05-06 14:31 | 50.32705 | 11.84591 | 25798 ft | 395 kts | 284° |
| 2026-05-06 14:31 | 50.33570 | 11.80508 | 25792 ft | 395 kts | 284° |
| 2026-05-06 14:31 | 50.34434 | 11.76421 | 25771 ft | 396 kts | 283° |
| 2026-05-06 14:31 | 50.35294 | 11.72328 | 25761 ft | 396 kts | 283° |
| 2026-05-06 14:32 | 50.36156 | 11.68221 | 25765 ft | 396 kts | 283° |
| 2026-05-06 14:32 | 50.37016 | 11.64119 | 25765 ft | 396 kts | 283° |
| 2026-05-06 14:32 | 50.37752 | 11.59982 | 25786 ft | 392 kts | 274° |
| 2026-05-06 14:32 | 50.38030 | 11.55755 | 25793 ft | 390 kts | 271° |
| 2026-05-06 14:33 | 50.38275 | 11.51518 | 25781 ft | 390 kts | 271° |
| 2026-05-06 14:33 | 50.38510 | 11.47333 | 25778 ft | 390 kts | 271° |
| 2026-05-06 14:33 | 50.38740 | 11.43095 | 25776 ft | 390 kts | 271° |
| 2026-05-06 14:33 | 50.38966 | 11.38859 | 25774 ft | 390 kts | 271° |
| 2026-05-06 14:34 | 50.39197 | 11.34627 | 25770 ft | 390 kts | 271° |
| 2026-05-06 14:34 | 50.39429 | 11.30394 | 25770 ft | 390 kts | 271° |
| 2026-05-06 14:34 | 50.39662 | 11.26169 | 25771 ft | 390 kts | 271° |
| 2026-05-06 14:34 | 50.39893 | 11.21926 | 25771 ft | 389 kts | 271° |
| 2026-05-06 14:35 | 50.40118 | 11.17736 | 25769 ft | 389 kts | 271° |
| 2026-05-06 14:35 | 50.40341 | 11.13505 | 25785 ft | 389 kts | 271° |
| 2026-05-06 14:35 | 50.40566 | 11.09281 | 25784 ft | 389 kts | 271° |
| 2026-05-06 14:35 | 50.40790 | 11.05041 | 25784 ft | 388 kts | 271° |
| 2026-05-06 14:36 | 50.41007 | 11.00812 | 25781 ft | 388 kts | 271° |
| 2026-05-06 14:36 | 50.41219 | 10.96603 | 25780 ft | 388 kts | 271° |
| 2026-05-06 14:36 | 50.41431 | 10.92421 | 25628 ft | 387 kts | 271° |
| 2026-05-06 14:36 | 50.41647 | 10.88210 | 25387 ft | 386 kts | 271° |
| 2026-05-06 14:37 | 50.41857 | 10.84020 | 25130 ft | 385 kts | 271° |
| 2026-05-06 14:37 | 50.42069 | 10.79836 | 24884 ft | 383 kts | 272° |
| 2026-05-06 14:37 | 50.42281 | 10.75678 | 24635 ft | 382 kts | 272° |
| 2026-05-06 14:37 | 50.42489 | 10.71519 | 24393 ft | 380 kts | 272° |
| 2026-05-06 14:38 | 50.42692 | 10.67389 | 24167 ft | 378 kts | 272° |
| 2026-05-06 14:38 | 50.42888 | 10.63283 | 23928 ft | 376 kts | 272° |
| 2026-05-06 14:38 | 50.43075 | 10.59251 | 23751 ft | 374 kts | 272° |
| 2026-05-06 14:38 | 50.43266 | 10.55188 | 23759 ft | 374 kts | 272° |
| 2026-05-06 14:39 | 50.43462 | 10.51112 | 23769 ft | 374 kts | 272° |
| 2026-05-06 14:39 | 50.43659 | 10.47043 | 23764 ft | 374 kts | 272° |
| 2026-05-06 14:39 | 50.43854 | 10.42965 | 23765 ft | 374 kts | 272° |
| 2026-05-06 14:39 | 50.44049 | 10.38892 | 23756 ft | 374 kts | 272° |
| 2026-05-06 14:40 | 50.44239 | 10.34811 | 23759 ft | 374 kts | 272° |
| 2026-05-06 14:40 | 50.44427 | 10.30781 | 23766 ft | 374 kts | 272° |
| 2026-05-06 14:40 | 50.44612 | 10.26708 | 23766 ft | 374 kts | 272° |
| 2026-05-06 14:40 | 50.44791 | 10.22629 | 23760 ft | 374 kts | 271° |
| 2026-05-06 14:41 | 50.44969 | 10.18553 | 23756 ft | 373 kts | 272° |
| 2026-05-06 14:41 | 50.45146 | 10.14539 | 23753 ft | 372 kts | 272° |
| 2026-05-06 14:41 | 50.45325 | 10.10487 | 23573 ft | 371 kts | 272° |
| 2026-05-06 14:41 | 50.45501 | 10.06462 | 22949 ft | 369 kts | 272° |
| 2026-05-06 14:42 | 50.45677 | 10.02438 | 22327 ft | 367 kts | 272° |
| 2026-05-06 14:42 | 50.45847 | 9.98454 | 21753 ft | 365 kts | 271° |
| 2026-05-06 14:42 | 50.46016 | 9.94454 | 20973 ft | 368 kts | 271° |
| 2026-05-06 14:42 | 50.46185 | 9.90435 | 20151 ft | 373 kts | 271° |
| 2026-05-06 14:43 | 50.46355 | 9.86366 | 19478 ft | 374 kts | 271° |
| 2026-05-06 14:43 | 50.46524 | 9.82292 | 18798 ft | 375 kts | 271° |
| 2026-05-06 14:43 | 50.46690 | 9.78253 | 18147 ft | 375 kts | 271° |
| 2026-05-06 14:43 | 50.46860 | 9.74165 | 17492 ft | 374 kts | 271° |
| 2026-05-06 14:44 | 50.47029 | 9.70093 | 16863 ft | 372 kts | 271° |
| 2026-05-06 14:44 | 50.47192 | 9.66059 | 16279 ft | 368 kts | 271° |
| 2026-05-06 14:44 | 50.47351 | 9.62062 | 15708 ft | 365 kts | 271° |
| 2026-05-06 14:45 | 50.46781 | 9.54323 | 14601 ft | 355 kts | 252° |
| 2026-05-06 14:45 | 50.46085 | 9.50617 | 14058 ft | 352 kts | 252° |
| 2026-05-06 14:45 | 50.45400 | 9.46995 | 13848 ft | 334 kts | 252° |
| 2026-05-06 14:45 | 50.44776 | 9.43697 | 13719 ft | 307 kts | 252° |
| 2026-05-06 14:46 | 50.44173 | 9.40575 | 13289 ft | 295 kts | 249° |
| 2026-05-06 14:46 | 50.43185 | 9.37815 | 13000 ft | 288 kts | 229° |
| 2026-05-06 14:46 | 50.41664 | 9.35819 | 12670 ft | 285 kts | 212° |
| 2026-05-06 14:46 | 50.39975 | 9.34203 | 12281 ft | 283 kts | 211° |
| 2026-05-06 14:47 | 50.38285 | 9.32612 | 11889 ft | 283 kts | 212° |
| 2026-05-06 14:47 | 50.36598 | 9.31031 | 11500 ft | 282 kts | 211° |
| 2026-05-06 14:47 | 50.34915 | 9.29456 | 11119 ft | 281 kts | 211° |
| 2026-05-06 14:47 | 50.33269 | 9.27915 | 10765 ft | 279 kts | 212° |
| 2026-05-06 14:48 | 50.31618 | 9.26338 | 10427 ft | 276 kts | 216° |
| 2026-05-06 14:48 | 50.30237 | 9.24292 | 10076 ft | 273 kts | 227° |
| 2026-05-06 14:48 | 50.28950 | 9.22101 | 9689 ft | 273 kts | 227° |
| 2026-05-06 14:48 | 50.27674 | 9.19922 | 9267 ft | 271 kts | 227° |
| 2026-05-06 14:49 | 50.26404 | 9.17753 | 8866 ft | 270 kts | 227° |
| 2026-05-06 14:49 | 50.25135 | 9.15592 | 8465 ft | 268 kts | 227° |
| 2026-05-06 14:49 | 50.23878 | 9.13444 | 8066 ft | 266 kts | 227° |
| 2026-05-06 14:49 | 50.22649 | 9.11343 | 7674 ft | 263 kts | 227° |
| 2026-05-06 14:50 | 50.21422 | 9.09246 | 7251 ft | 262 kts | 227° |
| 2026-05-06 14:50 | 50.20195 | 9.07154 | 6831 ft | 261 kts | 227° |
| 2026-05-06 14:50 | 50.18965 | 9.05062 | 6404 ft | 259 kts | 227° |
| 2026-05-06 14:50 | 50.17763 | 9.03022 | 5989 ft | 258 kts | 227° |
| 2026-05-06 14:51 | 50.16554 | 9.00975 | 5562 ft | 255 kts | 227° |
| 2026-05-06 14:51 | 50.15352 | 8.98940 | 5114 ft | 254 kts | 227° |
| 2026-05-06 14:51 | 50.14187 | 8.96961 | 4987 ft | 241 kts | 227° |
| 2026-05-06 14:51 | 50.13085 | 8.95089 | 4859 ft | 228 kts | 227° |
| 2026-05-06 14:52 | 50.12173 | 8.93141 | 4656 ft | 221 kts | 244° |
| 2026-05-06 14:52 | 50.11619 | 8.90953 | 4479 ft | 213 kts | 249° |
| 2026-05-06 14:52 | 50.11134 | 8.88829 | 4360 ft | 203 kts | 249° |
| 2026-05-06 14:52 | 50.10662 | 8.86801 | 4137 ft | 200 kts | 249° |
| 2026-05-06 14:53 | 50.10187 | 8.84777 | 3881 ft | 196 kts | 249° |
| 2026-05-06 14:53 | 50.09720 | 8.82792 | 3623 ft | 194 kts | 250° |
| 2026-05-06 14:53 | 50.09413 | 8.81491 | 3455 ft | 193 kts | 249° |
| 2026-05-06 14:53 | 50.08951 | 8.79530 | 3200 ft | 191 kts | 250° |
| 2026-05-06 14:54 | 50.08494 | 8.77593 | 2943 ft | 190 kts | 249° |
| 2026-05-06 14:54 | 50.08041 | 8.75675 | 2718 ft | 185 kts | 250° |
| 2026-05-06 14:54 | 50.07464 | 8.73239 | 2360 ft | 175 kts | 250° |
| 2026-05-06 14:54 | 50.07189 | 8.72077 | 2197 ft | 165 kts | 250° |
| 2026-05-06 14:55 | 50.06800 | 8.70435 | 1996 ft | 159 kts | 251° |
| 2026-05-06 14:55 | 50.06428 | 8.68865 | 1772 ft | 156 kts | 251° |
| 2026-05-06 14:55 | 50.06066 | 8.67338 | 1585 ft | 142 kts | 251° |
| 2026-05-06 14:55 | 50.05735 | 8.65944 | 1400 ft | 133 kts | 252° |
| 2026-05-06 14:56 | 50.05416 | 8.64601 | 1217 ft | 131 kts | 253° |
| 2026-05-06 14:56 | 50.05101 | 8.63275 | 1036 ft | 132 kts | 252° |
| 2026-05-06 14:56 | 50.04780 | 8.61923 | 849 ft | 133 kts | 247° |
| 2026-05-06 14:56 | 50.04462 | 8.60585 | 661 ft | 137 kts | 249° |
| 2026-05-06 14:57 | 50.04135 | 8.59195 | 488 ft | 133 kts | 252° |
| 2026-05-06 14:57 | 50.03826 | 8.57909 | 378 ft | 120 kts | 254° |
| 2026-05-06 14:57 | 50.03567 | 8.56804 | 353 ft | 94 kts | 249° |
| 2026-05-06 14:57 | 50.03385 | 8.56052 | 355 ft | 54 kts | 249° |
| 2026-05-06 14:58 | 50.03304 | 8.55639 | 350 ft | 37 kts | 265° |
| 2026-05-06 14:58 | 50.03336 | 8.55296 | 347 ft | 23 kts | 281° |
| 2026-05-06 14:58 | 50.03414 | 8.55181 | 343 ft | 16 kts | 33° |
| 2026-05-06 14:58 | 50.03467 | 8.55370 | 351 ft | 25 kts | 70° |
| 2026-05-06 14:59 | 50.03524 | 8.55606 | 351 ft | 22 kts | 69° |
| 2026-05-06 14:59 | 50.03575 | 8.55820 | 350 ft | 22 kts | 70° |
| 2026-05-06 14:59 | 50.03626 | 8.56032 | 353 ft | 21 kts | 69° |
| 2026-05-06 14:59 | 50.03678 | 8.56250 | 355 ft | 21 kts | 70° |
| 2026-05-06 15:00 | 50.03726 | 8.56452 | 352 ft | 20 kts | 70° |
| 2026-05-06 15:00 | 50.03786 | 8.56700 | 358 ft | 26 kts | 70° |
| 2026-05-06 15:00 | 50.03846 | 8.56954 | 354 ft | 24 kts | 70° |
| 2026-05-06 15:00 | 50.03898 | 8.57174 | 364 ft | 20 kts | 70° |
| 2026-05-06 15:01 | 50.03943 | 8.57363 | 365 ft | 19 kts | 70° |
| 2026-05-06 15:01 | 50.03995 | 8.57579 | 367 ft | 21 kts | 69° |
| 2026-05-06 15:01 | 50.04043 | 8.57777 | 369 ft | 19 kts | 69° |
| 2026-05-06 15:01 | 50.04092 | 8.57981 | 369 ft | 20 kts | 70° |
| 2026-05-06 15:02 | 50.04138 | 8.58174 | 368 ft | 18 kts | 70° |
| 2026-05-06 15:02 | 50.04181 | 8.58353 | 370 ft | 18 kts | 70° |
| 2026-05-06 15:02 | 50.04228 | 8.58550 | 371 ft | 20 kts | 70° |
| 2026-05-06 15:02 | 50.04281 | 8.58778 | 372 ft | 24 kts | 69° |
| 2026-05-06 15:03 | 50.04342 | 8.59025 | 377 ft | 24 kts | 69° |
| 2026-05-06 15:03 | 50.04401 | 8.59271 | 376 ft | 22 kts | 70° |
| 2026-05-06 15:03 | 50.04460 | 8.59453 | 375 ft | 17 kts | 38° |
| 2026-05-06 15:03 | 50.04586 | 8.59470 | 373 ft | 20 kts | 359° |
| 2026-05-06 15:04 | 50.04715 | 8.59434 | 372 ft | 17 kts | 342° |
| 2026-05-06 15:04 | 50.04816 | 8.59376 | 371 ft | 16 kts | 332° |
| 2026-05-06 15:04 | 50.04841 | 8.59244 | 368 ft | 12 kts | 255° |
| 2026-05-06 15:04 | 50.04814 | 8.59132 | 372 ft | 11 kts | 250° |
| 2026-05-06 15:05 | 50.04791 | 8.59033 | 370 ft | 9 kts | 250° |
| 2026-05-06 15:05 | 50.04771 | 8.58947 | 372 ft | 8 kts | 250° |
| 2026-05-06 15:05 | 50.04774 | 8.58870 | 373 ft | 6 kts | 323° |
| 2026-05-06 15:05 | 50.04819 | 8.58843 | 369 ft | 6 kts | 340° |
| 2026-05-06 15:06 | 50.04834 | 8.58835 | 367 ft | 0 kts | 339° |